SASA/SLA METAR and TAF weather

Enter ICAO airport designator
Station Type Date Time Source
SASA METAR 2021/09/27 08:00 UTC NOAA

SASA 270800Z 27002KT CAVOK 11/06 Q1017


Station Type Date Time Source
SASA Decoded METAR 2021/09/27 08:00 UTC NOAA

Salta Aerodrome, Argentina (SASA) 24-51S 065-29W 1221M
Sep 27, 2021 - 04:00 AM EDT / 2021.09.27 0800 UTC
Wind: from the W (270 degrees) at 2 MPH (2 KT):0
Visibility: greater than 7 mile(s):0
Temperature: 51 F (11 C)
Dew Point: 42 F (6 C)
Relative Humidity: 71%
Pressure (altimeter): 30.03 in. Hg (1017 hPa)
ob: SASA 270800Z 27002KT CAVOK 11/06 Q1017
cycle: 8

Station Type Date Time Source
SASA TAF 2021/09/27 06:12 UTC NOAA

TAF SASA 270500Z 2706/2806 25005KT CAVOK TX32/2718Z TN09/2710Z
BECMG 2714/2716 05010KT

Example: see airport list